sensor_id;sensor_type;location;lat;lon;timestamp;P1;durP1;ratioP1;P2;durP2;ratioP2
71048;SDS011;58704;53.358;-6.238;2022-09-12T00:02:19;3.77;;;1.20;;
71048;SDS011;58704;53.358;-6.238;2022-09-12T00:04:45;3.10;;;1.00;;
71048;SDS011;58704;53.358;-6.238;2022-09-12T00:07:11;3.43;;;1.40;;
71048;SDS011;58704;53.358;-6.238;2022-09-12T00:09:37;2.43;;;1.50;;
71048;SDS011;58704;53.358;-6.238;2022-09-12T00:12:03;2.47;;;1.33;;
71048;SDS011;58704;53.358;-6.238;2022-09-12T00:14:29;2.05;;;1.48;;
71048;SDS011;58704;53.358;-6.238;2022-09-12T00:16:58;6.53;;;1.40;;
71048;SDS011;58704;53.358;-6.238;2022-09-12T00:19:23;4.20;;;1.98;;
71048;SDS011;58704;53.358;-6.238;2022-09-12T00:21:49;4.32;;;1.50;;
71048;SDS011;58704;53.358;-6.238;2022-09-12T00:24:15;3.47;;;1.40;;
71048;SDS011;58704;53.358;-6.238;2022-09-12T00:26:41;3.27;;;1.37;;
71048;SDS011;58704;53.358;-6.238;2022-09-12T00:29:06;2.83;;;1.57;;
71048;SDS011;58704;53.358;-6.238;2022-09-12T00:31:31;4.03;;;1.53;;
71048;SDS011;58704;53.358;-6.238;2022-09-12T00:33:58;4.05;;;1.55;;
71048;SDS011;58704;53.358;-6.238;2022-09-12T00:36:24;2.67;;;1.73;;
71048;SDS011;58704;53.358;-6.238;2022-09-12T00:38:51;2.78;;;1.20;;
71048;SDS011;58704;53.358;-6.238;2022-09-12T00:41:18;4.45;;;1.70;;
71048;SDS011;58704;53.358;-6.238;2022-09-12T00:43:47;1.70;;;1.60;;
71048;SDS011;58704;53.358;-6.238;2022-09-12T00:49:23;3.30;;;1.30;;
71048;SDS011;58704;53.358;-6.238;2022-09-12T00:52:08;2.15;;;1.50;;
71048;SDS011;58704;53.358;-6.238;2022-09-12T00:57:12;2.15;;;1.27;;
71048;SDS011;58704;53.358;-6.238;2022-09-12T00:59:48;5.97;;;1.58;;
71048;SDS011;58704;53.358;-6.238;2022-09-12T01:02:17;2.50;;;1.47;;
71048;SDS011;58704;53.358;-6.238;2022-09-12T01:04:43;3.05;;;1.45;;
71048;SDS011;58704;53.358;-6.238;2022-09-12T01:07:08;1.77;;;1.10;;
71048;SDS011;58704;53.358;-6.238;2022-09-12T01:09:34;2.97;;;1.50;;
71048;SDS011;58704;53.358;-6.238;2022-09-12T01:12:00;2.73;;;1.30;;
71048;SDS011;58704;53.358;-6.238;2022-09-12T01:14:26;2.50;;;1.48;;
71048;SDS011;58704;53.358;-6.238;2022-09-12T01:16:52;2.63;;;1.55;;
71048;SDS011;58704;53.358;-6.238;2022-09-12T01:41:44;2.72;;;1.30;;
71048;SDS011;58704;53.358;-6.238;2022-09-12T01:47:14;2.35;;;1.48;;
71048;SDS011;58704;53.358;-6.238;2022-09-12T01:49:50;3.78;;;1.50;;
71048;SDS011;58704;53.358;-6.238;2022-09-12T01:52:31;1.20;;;1.10;;
71048;SDS011;58704;53.358;-6.238;2022-09-12T01:55:05;1.75;;;1.10;;
71048;SDS011;58704;53.358;-6.238;2022-09-12T01:57:37;2.15;;;1.42;;
71048;SDS011;58704;53.358;-6.238;2022-09-12T02:00:08;2.20;;;1.33;;
71048;SDS011;58704;53.358;-6.238;2022-09-12T02:02:45;1.67;;;1.10;;
71048;SDS011;58704;53.358;-6.238;2022-09-12T02:07:50;3.13;;;1.38;;
71048;SDS011;58704;53.358;-6.238;2022-09-12T02:10:22;1.27;;;1.17;;
71048;SDS011;58704;53.358;-6.238;2022-09-12T02:13:00;1.83;;;1.55;;
71048;SDS011;58704;53.358;-6.238;2022-09-12T02:15:37;1.77;;;1.35;;
71048;SDS011;58704;53.358;-6.238;2022-09-12T02:18:04;1.33;;;1.10;;
71048;SDS011;58704;53.358;-6.238;2022-09-12T02:20:35;2.42;;;1.30;;
71048;SDS011;58704;53.358;-6.238;2022-09-12T02:23:02;1.40;;;1.30;;
71048;SDS011;58704;53.358;-6.238;2022-09-12T02:25:30;1.52;;;1.10;;
71048;SDS011;58704;53.358;-6.238;2022-09-12T02:30:27;3.60;;;1.30;;
71048;SDS011;58704;53.358;-6.238;2022-09-12T02:32:57;1.63;;;1.30;;
71048;SDS011;58704;53.358;-6.238;2022-09-12T02:38:15;2.00;;;1.38;;
71048;SDS011;58704;53.358;-6.238;2022-09-12T02:40:44;2.63;;;1.10;;
71048;SDS011;58704;53.358;-6.238;2022-09-12T02:43:09;2.63;;;1.00;;
71048;SDS011;58704;53.358;-6.238;2022-09-12T02:45:35;1.50;;;1.20;;
71048;SDS011;58704;53.358;-6.238;2022-09-12T02:48:09;1.45;;;1.10;;
71048;SDS011;58704;53.358;-6.238;2022-09-12T02:50:36;2.95;;;1.10;;
71048;SDS011;58704;53.358;-6.238;2022-09-12T02:53:02;3.20;;;1.13;;
71048;SDS011;58704;53.358;-6.238;2022-09-12T02:55:33;1.75;;;1.40;;
71048;SDS011;58704;53.358;-6.238;2022-09-12T02:58:00;2.25;;;1.35;;
71048;SDS011;58704;53.358;-6.238;2022-09-12T03:00:28;3.70;;;1.10;;
71048;SDS011;58704;53.358;-6.238;2022-09-12T03:05:42;2.75;;;1.60;;
71048;SDS011;58704;53.358;-6.238;2022-09-12T03:10:46;1.92;;;1.15;;
71048;SDS011;58704;53.358;-6.238;2022-09-12T03:13:45;1.60;;;1.10;;
71048;SDS011;58704;53.358;-6.238;2022-09-12T03:16:26;1.10;;;1.00;;
71048;SDS011;58704;53.358;-6.238;2022-09-12T03:19:20;1.63;;;1.35;;
71048;SDS011;58704;53.358;-6.238;2022-09-12T03:27:30;1.20;;;1.10;;
71048;SDS011;58704;53.358;-6.238;2022-09-12T03:29:58;3.15;;;1.10;;
71048;SDS011;58704;53.358;-6.238;2022-09-12T03:32:40;2.23;;;1.10;;
71048;SDS011;58704;53.358;-6.238;2022-09-12T03:35:07;1.27;;;1.08;;
71048;SDS011;58704;53.358;-6.238;2022-09-12T03:37:32;1.83;;;1.10;;
71048;SDS011;58704;53.358;-6.238;2022-09-12T03:39:58;1.53;;;1.30;;
71048;SDS011;58704;53.358;-6.238;2022-09-12T03:42:23;1.20;;;1.10;;
71048;SDS011;58704;53.358;-6.238;2022-09-12T03:44:48;1.57;;;1.20;;
71048;SDS011;58704;53.358;-6.238;2022-09-12T03:47:14;1.95;;;1.50;;
71048;SDS011;58704;53.358;-6.238;2022-09-12T03:49:39;1.50;;;1.40;;
71048;SDS011;58704;53.358;-6.238;2022-09-12T03:52:05;1.20;;;1.07;;
71048;SDS011;58704;53.358;-6.238;2022-09-12T03:54:30;2.50;;;1.10;;
71048;SDS011;58704;53.358;-6.238;2022-09-12T03:56:55;1.80;;;1.40;;
71048;SDS011;58704;53.358;-6.238;2022-09-12T03:59:21;1.92;;;1.60;;
71048;SDS011;58704;53.358;-6.238;2022-09-12T04:01:46;1.87;;;1.20;;
71048;SDS011;58704;53.358;-6.238;2022-09-12T04:04:12;2.37;;;1.37;;
71048;SDS011;58704;53.358;-6.238;2022-09-12T04:06:37;2.10;;;1.00;;
71048;SDS011;58704;53.358;-6.238;2022-09-12T04:09:02;1.35;;;1.13;;
71048;SDS011;58704;53.358;-6.238;2022-09-12T04:11:28;1.80;;;1.20;;
71048;SDS011;58704;53.358;-6.238;2022-09-12T04:13:53;2.40;;;1.10;;
71048;SDS011;58704;53.358;-6.238;2022-09-12T04:16:19;2.23;;;1.03;;
71048;SDS011;58704;53.358;-6.238;2022-09-12T04:18:45;2.07;;;1.40;;
71048;SDS011;58704;53.358;-6.238;2022-09-12T04:21:11;1.77;;;1.30;;
71048;SDS011;58704;53.358;-6.238;2022-09-12T04:23:41;4.88;;;1.60;;
71048;SDS011;58704;53.358;-6.238;2022-09-12T04:26:07;1.20;;;1.10;;
71048;SDS011;58704;53.358;-6.238;2022-09-12T04:28:33;2.30;;;1.30;;
71048;SDS011;58704;53.358;-6.238;2022-09-12T04:31:07;1.58;;;1.45;;
71048;SDS011;58704;53.358;-6.238;2022-09-12T04:33:35;3.35;;;1.73;;
71048;SDS011;58704;53.358;-6.238;2022-09-12T04:36:02;2.93;;;1.80;;
71048;SDS011;58704;53.358;-6.238;2022-09-12T04:38:31;2.75;;;1.65;;
71048;SDS011;58704;53.358;-6.238;2022-09-12T04:40:57;3.90;;;1.47;;
71048;SDS011;58704;53.358;-6.238;2022-09-12T04:43:22;1.50;;;1.20;;
71048;SDS011;58704;53.358;-6.238;2022-09-12T04:45:48;2.43;;;1.20;;
71048;SDS011;58704;53.358;-6.238;2022-09-12T04:48:13;1.30;;;1.20;;
71048;SDS011;58704;53.358;-6.238;2022-09-12T04:50:39;1.57;;;1.30;;
71048;SDS011;58704;53.358;-6.238;2022-09-12T04:53:04;1.30;;;1.20;;
71048;SDS011;58704;53.358;-6.238;2022-09-12T04:55:30;1.73;;;1.40;;
71048;SDS011;58704;53.358;-6.238;2022-09-12T04:57:58;3.55;;;1.40;;
71048;SDS011;58704;53.358;-6.238;2022-09-12T05:00:25;1.70;;;1.42;;
71048;SDS011;58704;53.358;-6.238;2022-09-12T05:02:50;1.77;;;1.40;;
71048;SDS011;58704;53.358;-6.238;2022-09-12T05:05:16;2.57;;;1.60;;
71048;SDS011;58704;53.358;-6.238;2022-09-12T05:07:41;1.40;;;1.23;;
71048;SDS011;58704;53.358;-6.238;2022-09-12T05:10:07;1.73;;;1.50;;
71048;SDS011;58704;53.358;-6.238;2022-09-12T05:12:33;2.33;;;1.33;;
71048;SDS011;58704;53.358;-6.238;2022-09-12T05:14:58;1.30;;;1.20;;
71048;SDS011;58704;53.358;-6.238;2022-09-12T05:17:24;6.70;;;1.60;;
71048;SDS011;58704;53.358;-6.238;2022-09-12T05:19:49;3.13;;;1.50;;
71048;SDS011;58704;53.358;-6.238;2022-09-12T05:22:14;2.83;;;1.30;;
71048;SDS011;58704;53.358;-6.238;2022-09-12T05:24:40;2.35;;;1.40;;
71048;SDS011;58704;53.358;-6.238;2022-09-12T05:27:07;3.37;;;1.70;;
71048;SDS011;58704;53.358;-6.238;2022-09-12T05:29:33;1.48;;;1.35;;
71048;SDS011;58704;53.358;-6.238;2022-09-12T05:31:58;1.87;;;1.50;;
71048;SDS011;58704;53.358;-6.238;2022-09-12T05:34:24;2.58;;;1.30;;
71048;SDS011;58704;53.358;-6.238;2022-09-12T05:36:49;2.73;;;1.70;;
71048;SDS011;58704;53.358;-6.238;2022-09-12T05:39:15;1.20;;;1.03;;
71048;SDS011;58704;53.358;-6.238;2022-09-12T05:41:40;1.30;;;1.20;;
71048;SDS011;58704;53.358;-6.238;2022-09-12T05:44:06;2.80;;;1.30;;
71048;SDS011;58704;53.358;-6.238;2022-09-12T05:46:40;1.48;;;1.30;;
71048;SDS011;58704;53.358;-6.238;2022-09-12T05:49:07;1.47;;;1.37;;
71048;SDS011;58704;53.358;-6.238;2022-09-12T05:51:38;2.75;;;1.30;;
71048;SDS011;58704;53.358;-6.238;2022-09-12T05:54:08;2.03;;;1.50;;
71048;SDS011;58704;53.358;-6.238;2022-09-12T05:56:36;1.88;;;1.42;;
71048;SDS011;58704;53.358;-6.238;2022-09-12T05:59:09;1.58;;;1.23;;
71048;SDS011;58704;53.358;-6.238;2022-09-12T06:01:36;1.40;;;1.27;;
71048;SDS011;58704;53.358;-6.238;2022-09-12T06:04:03;2.40;;;1.40;;
71048;SDS011;58704;53.358;-6.238;2022-09-12T06:06:30;1.77;;;1.65;;
71048;SDS011;58704;53.358;-6.238;2022-09-12T06:08:58;1.52;;;1.42;;
71048;SDS011;58704;53.358;-6.238;2022-09-12T06:11:26;1.73;;;1.50;;
71048;SDS011;58704;53.358;-6.238;2022-09-12T06:13:54;2.60;;;1.42;;
71048;SDS011;58704;53.358;-6.238;2022-09-12T06:16:21;1.40;;;1.30;;
71048;SDS011;58704;53.358;-6.238;2022-09-12T06:18:49;1.60;;;1.50;;
71048;SDS011;58704;53.358;-6.238;2022-09-12T06:21:16;1.58;;;1.48;;
71048;SDS011;58704;53.358;-6.238;2022-09-12T06:23:41;3.60;;;1.77;;
71048;SDS011;58704;53.358;-6.238;2022-09-12T06:26:08;1.88;;;1.58;;
71048;SDS011;58704;53.358;-6.238;2022-09-12T06:28:35;1.90;;;1.58;;
71048;SDS011;58704;53.358;-6.238;2022-09-12T06:31:03;1.83;;;1.60;;
71048;SDS011;58704;53.358;-6.238;2022-09-12T06:33:33;4.10;;;1.73;;
71048;SDS011;58704;53.358;-6.238;2022-09-12T06:36:07;4.85;;;1.60;;
71048;SDS011;58704;53.358;-6.238;2022-09-12T06:38:37;3.38;;;1.50;;
71048;SDS011;58704;53.358;-6.238;2022-09-12T06:41:03;4.27;;;1.80;;
71048;SDS011;58704;53.358;-6.238;2022-09-12T06:43:30;2.93;;;1.90;;
71048;SDS011;58704;53.358;-6.238;2022-09-12T06:45:56;2.95;;;1.60;;
71048;SDS011;58704;53.358;-6.238;2022-09-12T06:48:21;1.80;;;1.70;;
71048;SDS011;58704;53.358;-6.238;2022-09-12T06:51:00;2.77;;;1.83;;
71048;SDS011;58704;53.358;-6.238;2022-09-12T06:53:28;2.47;;;1.52;;
71048;SDS011;58704;53.358;-6.238;2022-09-12T06:55:58;1.63;;;1.52;;
71048;SDS011;58704;53.358;-6.238;2022-09-12T06:58:24;2.20;;;1.50;;
71048;SDS011;58704;53.358;-6.238;2022-09-12T07:00:51;2.83;;;1.45;;
71048;SDS011;58704;53.358;-6.238;2022-09-12T07:03:17;3.30;;;1.70;;
71048;SDS011;58704;53.358;-6.238;2022-09-12T07:05:43;6.82;;;2.08;;
71048;SDS011;58704;53.358;-6.238;2022-09-12T07:08:09;2.80;;;2.22;;
71048;SDS011;58704;53.358;-6.238;2022-09-12T07:10:34;1.93;;;1.73;;
71048;SDS011;58704;53.358;-6.238;2022-09-12T07:13:00;3.97;;;1.93;;
71048;SDS011;58704;53.358;-6.238;2022-09-12T07:15:25;3.20;;;1.80;;
71048;SDS011;58704;53.358;-6.238;2022-09-12T07:17:51;2.97;;;1.92;;
71048;SDS011;58704;53.358;-6.238;2022-09-12T07:20:16;2.50;;;1.80;;
71048;SDS011;58704;53.358;-6.238;2022-09-12T07:22:42;2.13;;;1.90;;
71048;SDS011;58704;53.358;-6.238;2022-09-12T07:25:07;2.60;;;2.10;;
71048;SDS011;58704;53.358;-6.238;2022-09-12T07:27:33;3.37;;;1.80;;
71048;SDS011;58704;53.358;-6.238;2022-09-12T07:29:58;3.77;;;2.03;;
71048;SDS011;58704;53.358;-6.238;2022-09-12T07:32:25;3.70;;;1.75;;
71048;SDS011;58704;53.358;-6.238;2022-09-12T07:34:51;3.88;;;2.60;;
71048;SDS011;58704;53.358;-6.238;2022-09-12T07:37:17;7.97;;;3.20;;
71048;SDS011;58704;53.358;-6.238;2022-09-12T07:39:42;6.28;;;2.50;;
71048;SDS011;58704;53.358;-6.238;2022-09-12T07:42:07;6.17;;;2.70;;
71048;SDS011;58704;53.358;-6.238;2022-09-12T07:44:33;3.93;;;2.10;;
71048;SDS011;58704;53.358;-6.238;2022-09-12T07:46:59;4.67;;;1.73;;
71048;SDS011;58704;53.358;-6.238;2022-09-12T07:49:24;2.92;;;1.77;;
71048;SDS011;58704;53.358;-6.238;2022-09-12T07:51:50;5.27;;;2.10;;
71048;SDS011;58704;53.358;-6.238;2022-09-12T07:54:15;3.35;;;1.75;;
71048;SDS011;58704;53.358;-6.238;2022-09-12T07:56:41;2.17;;;1.50;;
71048;SDS011;58704;53.358;-6.238;2022-09-12T07:59:07;2.53;;;1.83;;
71048;SDS011;58704;53.358;-6.238;2022-09-12T08:01:32;2.13;;;1.60;;
71048;SDS011;58704;53.358;-6.238;2022-09-12T08:03:58;1.95;;;1.60;;
71048;SDS011;58704;53.358;-6.238;2022-09-12T08:06:24;4.60;;;1.80;;
71048;SDS011;58704;53.358;-6.238;2022-09-12T08:08:52;3.13;;;1.55;;
71048;SDS011;58704;53.358;-6.238;2022-09-12T08:11:19;2.70;;;1.70;;
71048;SDS011;58704;53.358;-6.238;2022-09-12T08:13:46;3.38;;;1.85;;
71048;SDS011;58704;53.358;-6.238;2022-09-12T08:16:14;4.40;;;2.05;;
71048;SDS011;58704;53.358;-6.238;2022-09-12T08:18:44;7.17;;;2.03;;
71048;SDS011;58704;53.358;-6.238;2022-09-12T08:23:40;4.40;;;2.00;;
71048;SDS011;58704;53.358;-6.238;2022-09-12T08:26:06;3.88;;;1.70;;
71048;SDS011;58704;53.358;-6.238;2022-09-12T08:28:33;3.15;;;1.50;;
71048;SDS011;58704;53.358;-6.238;2022-09-12T08:31:03;3.45;;;1.40;;
71048;SDS011;58704;53.358;-6.238;2022-09-12T08:33:31;6.57;;;2.00;;
71048;SDS011;58704;53.358;-6.238;2022-09-12T08:36:04;2.13;;;1.37;;
71048;SDS011;58704;53.358;-6.238;2022-09-12T08:38:31;3.33;;;1.88;;
71048;SDS011;58704;53.358;-6.238;2022-09-12T08:41:44;4.30;;;1.60;;
71048;SDS011;58704;53.358;-6.238;2022-09-12T08:54:54;4.30;;;2.67;;
71048;SDS011;58704;53.358;-6.238;2022-09-12T08:57:20;3.83;;;1.98;;
71048;SDS011;58704;53.358;-6.238;2022-09-12T08:59:46;3.47;;;1.90;;
71048;SDS011;58704;53.358;-6.238;2022-09-12T09:05:28;1.70;;;1.25;;
71048;SDS011;58704;53.358;-6.238;2022-09-12T09:08:05;2.42;;;1.30;;
71048;SDS011;58704;53.358;-6.238;2022-09-12T09:16:40;1.75;;;0.90;;
71048;SDS011;58704;53.358;-6.238;2022-09-12T09:19:17;5.13;;;1.20;;
71048;SDS011;58704;53.358;-6.238;2022-09-12T09:21:50;2.83;;;1.40;;
71048;SDS011;58704;53.358;-6.238;2022-09-12T09:24:20;3.60;;;1.27;;
71048;SDS011;58704;53.358;-6.238;2022-09-12T09:29:38;1.55;;;1.25;;
71048;SDS011;58704;53.358;-6.238;2022-09-12T09:32:13;3.83;;;1.35;;
71048;SDS011;58704;53.358;-6.238;2022-09-12T09:34:42;2.92;;;1.60;;
71048;SDS011;58704;53.358;-6.238;2022-09-12T09:37:13;2.87;;;1.70;;
71048;SDS011;58704;53.358;-6.238;2022-09-12T09:42:43;3.05;;;1.60;;
71048;SDS011;58704;53.358;-6.238;2022-09-12T09:45:21;1.98;;;1.60;;
71048;SDS011;58704;53.358;-6.238;2022-09-12T09:50:41;2.95;;;1.80;;
71048;SDS011;58704;53.358;-6.238;2022-09-12T09:53:08;2.95;;;1.80;;
71048;SDS011;58704;53.358;-6.238;2022-09-12T09:55:45;3.33;;;1.60;;
71048;SDS011;58704;53.358;-6.238;2022-09-12T09:58:26;2.30;;;2.10;;
71048;SDS011;58704;53.358;-6.238;2022-09-12T10:00:59;4.10;;;1.98;;
71048;SDS011;58704;53.358;-6.238;2022-09-12T10:03:27;2.92;;;2.10;;
71048;SDS011;58704;53.358;-6.238;2022-09-12T10:05:59;2.53;;;1.80;;
71048;SDS011;58704;53.358;-6.238;2022-09-12T10:08:27;3.20;;;1.70;;
71048;SDS011;58704;53.358;-6.238;2022-09-12T10:13:29;3.00;;;1.55;;
71048;SDS011;58704;53.358;-6.238;2022-09-12T10:15:59;2.05;;;1.50;;
71048;SDS011;58704;53.358;-6.238;2022-09-12T10:18:39;1.63;;;1.35;;
71048;SDS011;58704;53.358;-6.238;2022-09-12T10:21:17;4.43;;;1.50;;
71048;SDS011;58704;53.358;-6.238;2022-09-12T10:23:46;1.20;;;1.10;;
71048;SDS011;58704;53.358;-6.238;2022-09-12T10:26:13;2.75;;;1.40;;
71048;SDS011;58704;53.358;-6.238;2022-09-12T10:28:49;5.72;;;1.60;;
71048;SDS011;58704;53.358;-6.238;2022-09-12T10:31:27;2.00;;;1.60;;
71048;SDS011;58704;53.358;-6.238;2022-09-12T10:34:03;4.90;;;1.43;;
71048;SDS011;58704;53.358;-6.238;2022-09-12T10:36:36;1.88;;;1.67;;
71048;SDS011;58704;53.358;-6.238;2022-09-12T10:39:02;2.85;;;1.83;;
71048;SDS011;58704;53.358;-6.238;2022-09-12T10:41:34;3.20;;;1.90;;
71048;SDS011;58704;53.358;-6.238;2022-09-12T10:44:11;4.35;;;1.80;;
71048;SDS011;58704;53.358;-6.238;2022-09-12T10:46:39;2.90;;;2.20;;
71048;SDS011;58704;53.358;-6.238;2022-09-12T10:49:38;2.97;;;2.27;;
71048;SDS011;58704;53.358;-6.238;2022-09-12T10:52:16;3.92;;;2.30;;
71048;SDS011;58704;53.358;-6.238;2022-09-12T10:54:45;5.65;;;2.40;;
71048;SDS011;58704;53.358;-6.238;2022-09-12T11:00:18;3.83;;;2.10;;
71048;SDS011;58704;53.358;-6.238;2022-09-12T11:05:50;3.65;;;1.90;;
71048;SDS011;58704;53.358;-6.238;2022-09-12T11:18:52;2.50;;;2.30;;
71048;SDS011;58704;53.358;-6.238;2022-09-12T11:24:26;3.38;;;2.20;;
71048;SDS011;58704;53.358;-6.238;2022-09-12T11:30:11;4.85;;;1.70;;
71048;SDS011;58704;53.358;-6.238;2022-09-12T11:35:29;2.93;;;2.50;;
71048;SDS011;58704;53.358;-6.238;2022-09-12T11:40:54;2.65;;;2.00;;
71048;SDS011;58704;53.358;-6.238;2022-09-12T11:57:13;3.38;;;2.42;;
71048;SDS011;58704;53.358;-6.238;2022-09-12T11:59:46;4.05;;;2.60;;
71048;SDS011;58704;53.358;-6.238;2022-09-12T12:02:19;4.83;;;2.83;;
71048;SDS011;58704;53.358;-6.238;2022-09-12T12:05:33;4.65;;;3.00;;
71048;SDS011;58704;53.358;-6.238;2022-09-12T12:07:41;7.18;;;3.05;;
71048;SDS011;58704;53.358;-6.238;2022-09-12T12:10:30;3.70;;;2.03;;
71048;SDS011;58704;53.358;-6.238;2022-09-12T12:13:15;2.95;;;2.00;;
71048;SDS011;58704;53.358;-6.238;2022-09-12T12:15:44;2.83;;;1.67;;
71048;SDS011;58704;53.358;-6.238;2022-09-12T12:20:46;5.55;;;4.45;;
71048;SDS011;58704;53.358;-6.238;2022-09-12T12:23:21;3.17;;;2.30;;
71048;SDS011;58704;53.358;-6.238;2022-09-12T12:25:51;2.70;;;1.60;;
71048;SDS011;58704;53.358;-6.238;2022-09-12T12:31:15;1.50;;;1.40;;
71048;SDS011;58704;53.358;-6.238;2022-09-12T12:36:10;2.67;;;1.70;;
71048;SDS011;58704;53.358;-6.238;2022-09-12T12:38:52;2.43;;;1.53;;
71048;SDS011;58704;53.358;-6.238;2022-09-12T12:43:44;1.63;;;1.37;;
71048;SDS011;58704;53.358;-6.238;2022-09-12T12:46:24;3.35;;;1.27;;
71048;SDS011;58704;53.358;-6.238;2022-09-12T12:53:49;3.80;;;1.50;;
71048;SDS011;58704;53.358;-6.238;2022-09-12T12:56:57;6.47;;;1.50;;
71048;SDS011;58704;53.358;-6.238;2022-09-12T12:59:12;5.53;;;1.80;;
71048;SDS011;58704;53.358;-6.238;2022-09-12T13:01:48;2.63;;;1.58;;
71048;SDS011;58704;53.358;-6.238;2022-09-12T13:04:19;3.50;;;1.35;;
71048;SDS011;58704;53.358;-6.238;2022-09-12T13:06:54;1.87;;;1.10;;
71048;SDS011;58704;53.358;-6.238;2022-09-12T13:09:22;1.30;;;1.20;;
71048;SDS011;58704;53.358;-6.238;2022-09-12T13:11:58;3.45;;;1.60;;
71048;SDS011;58704;53.358;-6.238;2022-09-12T13:15:01;2.28;;;1.00;;
71048;SDS011;58704;53.358;-6.238;2022-09-12T13:17:42;3.08;;;1.55;;
71048;SDS011;58704;53.358;-6.238;2022-09-12T13:22:44;5.85;;;1.90;;
71048;SDS011;58704;53.358;-6.238;2022-09-12T13:25:22;3.45;;;1.63;;
71048;SDS011;58704;53.358;-6.238;2022-09-12T13:27:57;3.35;;;1.50;;
71048;SDS011;58704;53.358;-6.238;2022-09-12T13:34:03;1.70;;;1.47;;
71048;SDS011;58704;53.358;-6.238;2022-09-12T13:43:46;4.10;;;1.60;;
71048;SDS011;58704;53.358;-6.238;2022-09-12T13:46:12;7.63;;;2.00;;
71048;SDS011;58704;53.358;-6.238;2022-09-12T13:48:40;2.60;;;1.45;;
71048;SDS011;58704;53.358;-6.238;2022-09-12T13:51:06;4.70;;;1.52;;
71048;SDS011;58704;53.358;-6.238;2022-09-12T13:53:39;2.43;;;1.50;;
71048;SDS011;58704;53.358;-6.238;2022-09-12T13:56:07;5.22;;;1.80;;
71048;SDS011;58704;53.358;-6.238;2022-09-12T13:58:32;7.87;;;2.77;;
71048;SDS011;58704;53.358;-6.238;2022-09-12T14:03:39;3.40;;;1.80;;
71048;SDS011;58704;53.358;-6.238;2022-09-12T14:06:47;3.47;;;1.87;;
71048;SDS011;58704;53.358;-6.238;2022-09-12T14:09:24;3.30;;;1.33;;
71048;SDS011;58704;53.358;-6.238;2022-09-12T14:11:52;2.38;;;1.17;;
71048;SDS011;58704;53.358;-6.238;2022-09-12T14:14:39;6.60;;;2.77;;
71048;SDS011;58704;53.358;-6.238;2022-09-12T14:17:14;1.88;;;1.20;;
71048;SDS011;58704;53.358;-6.238;2022-09-12T14:19:47;3.45;;;1.40;;
71048;SDS011;58704;53.358;-6.238;2022-09-12T14:22:13;2.23;;;1.30;;
71048;SDS011;58704;53.358;-6.238;2022-09-12T14:24:43;1.20;;;1.10;;
71048;SDS011;58704;53.358;-6.238;2022-09-12T14:27:19;3.65;;;1.30;;
71048;SDS011;58704;53.358;-6.238;2022-09-12T14:29:50;5.57;;;0.93;;
71048;SDS011;58704;53.358;-6.238;2022-09-12T14:32:22;5.50;;;1.58;;
71048;SDS011;58704;53.358;-6.238;2022-09-12T14:37:36;1.47;;;1.10;;
71048;SDS011;58704;53.358;-6.238;2022-09-12T14:40:01;2.60;;;1.27;;
71048;SDS011;58704;53.358;-6.238;2022-09-12T14:42:29;2.42;;;1.33;;
71048;SDS011;58704;53.358;-6.238;2022-09-12T14:47:23;2.28;;;1.40;;
71048;SDS011;58704;53.358;-6.238;2022-09-12T14:49:52;10.70;;;3.00;;
71048;SDS011;58704;53.358;-6.238;2022-09-12T14:52:22;3.15;;;1.67;;
71048;SDS011;58704;53.358;-6.238;2022-09-12T14:57:40;3.60;;;1.70;;
71048;SDS011;58704;53.358;-6.238;2022-09-12T15:02:41;2.30;;;1.67;;
71048;SDS011;58704;53.358;-6.238;2022-09-12T15:07:34;4.57;;;2.70;;
71048;SDS011;58704;53.358;-6.238;2022-09-12T15:10:02;11.43;;;5.22;;
71048;SDS011;58704;53.358;-6.238;2022-09-12T15:12:38;11.15;;;4.82;;
71048;SDS011;58704;53.358;-6.238;2022-09-12T15:15:13;8.97;;;4.17;;
71048;SDS011;58704;53.358;-6.238;2022-09-12T15:17:40;7.68;;;3.80;;
71048;SDS011;58704;53.358;-6.238;2022-09-12T15:20:06;7.33;;;3.47;;
71048;SDS011;58704;53.358;-6.238;2022-09-12T15:22:32;8.23;;;4.25;;
71048;SDS011;58704;53.358;-6.238;2022-09-12T15:24:59;9.10;;;4.28;;
71048;SDS011;58704;53.358;-6.238;2022-09-12T15:27:24;6.07;;;3.93;;
71048;SDS011;58704;53.358;-6.238;2022-09-12T15:29:52;5.80;;;3.83;;
71048;SDS011;58704;53.358;-6.238;2022-09-12T15:32:22;5.67;;;3.57;;
71048;SDS011;58704;53.358;-6.238;2022-09-12T15:34:51;4.70;;;3.53;;
71048;SDS011;58704;53.358;-6.238;2022-09-12T15:37:18;6.97;;;3.78;;
71048;SDS011;58704;53.358;-6.238;2022-09-12T15:39:44;5.05;;;3.90;;
71048;SDS011;58704;53.358;-6.238;2022-09-12T15:42:10;5.53;;;3.70;;
71048;SDS011;58704;53.358;-6.238;2022-09-12T15:44:36;5.10;;;3.70;;
71048;SDS011;58704;53.358;-6.238;2022-09-12T15:47:02;4.88;;;3.67;;
71048;SDS011;58704;53.358;-6.238;2022-09-12T15:49:27;4.50;;;3.50;;
71048;SDS011;58704;53.358;-6.238;2022-09-12T15:51:53;6.68;;;3.20;;
71048;SDS011;58704;53.358;-6.238;2022-09-12T15:54:19;7.53;;;3.63;;
71048;SDS011;58704;53.358;-6.238;2022-09-12T15:56:45;5.55;;;3.95;;
71048;SDS011;58704;53.358;-6.238;2022-09-12T15:59:10;7.83;;;4.40;;
71048;SDS011;58704;53.358;-6.238;2022-09-12T16:01:35;6.60;;;4.00;;
71048;SDS011;58704;53.358;-6.238;2022-09-12T16:04:01;5.33;;;3.90;;
71048;SDS011;58704;53.358;-6.238;2022-09-12T16:06:27;8.55;;;4.38;;
71048;SDS011;58704;53.358;-6.238;2022-09-12T16:08:55;8.43;;;4.38;;
71048;SDS011;58704;53.358;-6.238;2022-09-12T16:11:24;9.73;;;4.60;;
71048;SDS011;58704;53.358;-6.238;2022-09-12T16:13:51;6.82;;;4.22;;
71048;SDS011;58704;53.358;-6.238;2022-09-12T16:16:18;8.80;;;5.07;;
71048;SDS011;58704;53.358;-6.238;2022-09-12T16:18:44;7.95;;;4.82;;
71048;SDS011;58704;53.358;-6.238;2022-09-12T16:21:09;7.73;;;5.53;;
71048;SDS011;58704;53.358;-6.238;2022-09-12T16:23:35;7.47;;;4.20;;
71048;SDS011;58704;53.358;-6.238;2022-09-12T16:26:04;7.85;;;4.53;;
71048;SDS011;58704;53.358;-6.238;2022-09-12T16:28:31;6.47;;;4.88;;
71048;SDS011;58704;53.358;-6.238;2022-09-12T16:31:01;8.48;;;4.28;;
71048;SDS011;58704;53.358;-6.238;2022-09-12T16:33:28;8.90;;;4.38;;
71048;SDS011;58704;53.358;-6.238;2022-09-12T16:38:50;8.18;;;4.55;;
71048;SDS011;58704;53.358;-6.238;2022-09-12T16:41:17;5.68;;;4.25;;
71048;SDS011;58704;53.358;-6.238;2022-09-12T16:43:44;7.03;;;4.53;;
71048;SDS011;58704;53.358;-6.238;2022-09-12T16:46:10;8.00;;;4.40;;
71048;SDS011;58704;53.358;-6.238;2022-09-12T16:48:41;7.22;;;4.63;;
71048;SDS011;58704;53.358;-6.238;2022-09-12T16:51:08;10.23;;;5.10;;
71048;SDS011;58704;53.358;-6.238;2022-09-12T16:53:35;10.43;;;5.00;;
71048;SDS011;58704;53.358;-6.238;2022-09-12T16:56:01;7.45;;;4.47;;
71048;SDS011;58704;53.358;-6.238;2022-09-12T16:58:30;8.70;;;4.15;;
71048;SDS011;58704;53.358;-6.238;2022-09-12T17:01:00;5.47;;;4.00;;
71048;SDS011;58704;53.358;-6.238;2022-09-12T17:03:32;6.35;;;4.22;;
71048;SDS011;58704;53.358;-6.238;2022-09-12T17:06:00;6.17;;;3.73;;
71048;SDS011;58704;53.358;-6.238;2022-09-12T17:08:31;4.97;;;3.75;;
71048;SDS011;58704;53.358;-6.238;2022-09-12T17:11:01;8.35;;;4.00;;
71048;SDS011;58704;53.358;-6.238;2022-09-12T17:13:28;5.60;;;4.00;;
71048;SDS011;58704;53.358;-6.238;2022-09-12T17:15:54;6.93;;;4.47;;
71048;SDS011;58704;53.358;-6.238;2022-09-12T17:18:20;6.37;;;4.53;;
71048;SDS011;58704;53.358;-6.238;2022-09-12T17:20:46;6.80;;;4.13;;
71048;SDS011;58704;53.358;-6.238;2022-09-12T17:23:12;9.30;;;4.80;;
71048;SDS011;58704;53.358;-6.238;2022-09-12T17:25:37;9.20;;;4.35;;
71048;SDS011;58704;53.358;-6.238;2022-09-12T17:28:05;7.80;;;4.28;;
71048;SDS011;58704;53.358;-6.238;2022-09-12T17:30:34;6.20;;;3.90;;
71048;SDS011;58704;53.358;-6.238;2022-09-12T17:33:00;6.72;;;3.55;;
71048;SDS011;58704;53.358;-6.238;2022-09-12T17:35:26;7.32;;;4.00;;
71048;SDS011;58704;53.358;-6.238;2022-09-12T17:37:52;5.63;;;4.23;;
71048;SDS011;58704;53.358;-6.238;2022-09-12T17:40:17;5.72;;;4.05;;